This is the latest recevied weather packets stored in our database for station/object YO6IKB-10. If no packets are shown the sender has not sent any weather packets the latest 1 day(s).
| Time | Temp. | Humidity | Pressure | Rain* | Wind** | Luminosity | Snow |
|---|---|---|---|---|---|---|---|
| 1836274845 | 12.22° C | 84% | 1024.1 hPa | 0 mm | 0 m/s | - | - |
| 1836274545 | 12.22° C | 84% | 1024 hPa | 0 mm | 0 m/s | - | - |
| 1836274395 | 12.22° C | 84% | 1024.1 hPa | 0 mm | 0.45 m/s, 337° | - | - |
| 1836274244 | 12.22° C | 84% | 1024.1 hPa | 0 mm | 0 m/s | - | - |
| 1836273944 | 12.22° C | 84% | 1024.1 hPa | 0 mm | 0 m/s | - | - |
| 1778005392 | 18.89° C | 47% | 1009.2 hPa | 0 mm | 0 m/s | - | - |
| 1778005092 | 18.89° C | 47% | 1009 hPa | 0 mm | 0 m/s | - | - |
| 1778004792 | 19.44° C | 47% | 1009 hPa | 0 mm | 0.45 m/s, 202° | - | - |
| 1778004491 | 19.44° C | 47% | 1008.8 hPa | 0 mm | 0 m/s | - | - |
| 1778004191 | 19.44° C | 47% | 1008.6 hPa | 0 mm | 1.34 m/s, 90° | - | - |
| 1778003891 | 19.44° C | 47% | 1008.4 hPa | 0 mm | 0 m/s | - | - |
| 1778003290 | 20° C | 45% | 1008.5 hPa | 0 mm | 0 m/s | - | - |
| 1778002990 | 20.56° C | 45% | 1008.3 hPa | 0 mm | 0 m/s | - | - |
| 1778002690 | 20.56° C | 45% | 1008.3 hPa | 0 mm | 0 m/s | - | - |
| 1778002389 | 20.56° C | 44% | 1008.3 hPa | 0 mm | 1.34 m/s, 67° | - | - |
| 1778002092 | 21.67° C | 43% | 1008.3 hPa | 0 mm | 2.68 m/s, 67° | - | - |
| 1778001789 | 22.22° C | 39% | 1008.2 hPa | 0 mm | 2.68 m/s, 67° | - | - |
| 1778001489 | 22.78° C | 37% | 1008.2 hPa | 0 mm | 0 m/s | - | - |
| 1778001188 | 23.33° C | 38% | 1008.2 hPa | 0 mm | 0 m/s | - | - |
| 1778000888 | 23.33° C | 38% | 1008.2 hPa | 0 mm | 0 m/s | - | - |
| 1778000588 | 23.33° C | 38% | 1008.2 hPa | 0 mm | 0 m/s | - | - |
| 1778000287 | 23.89° C | 37% | 1008.2 hPa | 0 mm | 0 m/s | - | - |
| 1777999987 | 23.89° C | 37% | 1008.2 hPa | 0 mm | 0 m/s | - | - |
| 1777999687 | 23.89° C | 37% | 1008.2 hPa | 0 mm | 0 m/s | - | - |
| 1777999386 | 23.89° C | 37% | 1008.2 hPa | 0 mm | 0 m/s | - | - |
* Rain latest hour (hover to see other rain measurements)
** Current wind speed in m/s (hover to see current wind gust speed)